Time;durP1;ratioP1;P1;durP2;ratioP2;P2;SDS_P1;SDS_P2;PMS_P1;PMS_P2;Temp;Humidity;BMP_temperature;BMP_pressure;BME280_temperature;BME280_humidity;BME280_pressure;Samples;Min_cycle;Max_cycle;Signal;HPM_P1;HPM_P2
2023/09/30 00:04:10;;;;;;;14.02;10.35;;;18.70;99.90;;;;;;10448207;28;20422;-76
2023/09/30 00:09:31;;;;;;;13.25;10.32;;;18.70;1.00;;;;;;10434964;28;20426;-76
2023/09/30 00:14:53;;;;;;;12.90;10.30;;;18.70;99.90;;;;;;10472142;28;20215;-76
2023/09/30 00:20:17;;;;;;;12.30;10.55;;;18.60;1.00;;;;;;10477157;28;20194;-77
2023/09/30 00:25:39;;;;;;;11.27;10.13;;;18.60;99.90;;;;;;10475638;28;20200;-76
2023/09/30 00:31:00;;;;;;;12.95;10.15;;;18.50;99.90;;;;;;10475398;28;20211;-75
2023/09/30 00:36:22;;;;;;;11.65;9.98;;;18.40;99.90;;;;;;10476865;28;20235;-74
2023/09/30 00:41:43;;;;;;;11.02;10.02;;;18.40;1.00;;;;;;10476002;28;20413;-75
2023/09/30 00:47:05;;;;;;;10.95;9.38;;;18.30;1.00;;;;;;10476680;28;20502;-74
2023/09/30 00:52:27;;;;;;;11.50;9.82;;;18.30;1.00;;;;;;10464762;28;20245;-74
2023/09/30 00:57:48;;;;;;;14.32;9.70;;;18.40;99.90;;;;;;10464937;28;20223;-75
2023/09/30 01:03:10;;;;;;;11.52;8.85;;;18.20;1.00;;;;;;10471639;28;20192;-75
2023/09/30 01:08:34;;;;;;;11.63;9.30;;;18.30;1.00;;;;;;10493464;28;20235;-76
2023/09/30 01:13:55;;;;;;;12.35;9.55;;;18.30;1.00;;;;;;10444421;28;20216;-77
2023/09/30 01:19:17;;;;;;;10.85;9.15;;;18.30;1.00;;;;;;10482308;28;20486;-76
2023/09/30 01:24:40;;;;;;;10.95;8.80;;;18.30;1.00;;;;;;10483431;28;20569;-76
2023/09/30 01:30:01;;;;;;;10.70;8.98;;;18.30;1.00;;;;;;10466554;28;20494;-77
2023/09/30 01:35:22;;;;;;;12.40;7.88;;;18.30;1.00;;;;;;10467691;28;20311;-77
2023/09/30 01:40:44;;;;;;;9.35;7.63;;;18.20;1.00;;;;;;10466744;28;20206;-76
2023/09/30 01:46:06;;;;;;;12.23;8.23;;;18.20;1.00;;;;;;10468663;28;20253;-77
2023/09/30 01:51:28;;;;;;;11.63;8.82;;;18.20;1.00;;;;;;10480668;28;20204;-76
2023/09/30 01:56:52;;;;;;;11.93;8.38;;;18.20;1.00;;;;;;10480734;28;20230;-77
2023/09/30 02:02:13;;;;;;;9.68;7.90;;;18.20;1.20;;;;;;10447905;28;20196;-76
2023/09/30 02:07:35;;;;;;;12.35;8.55;;;18.20;1.00;;;;;;10438996;28;20258;-77
2023/09/30 02:12:59;;;;;;;10.75;8.95;;;18.20;99.90;;;;;;10478325;28;20257;-77
2023/09/30 02:18:20;;;;;;;12.25;8.77;;;18.30;99.90;;;;;;10465687;28;20199;-76
2023/09/30 02:23:41;;;;;;;14.00;8.02;;;18.30;99.90;;;;;;10479885;28;20225;-76
2023/09/30 02:29:03;;;;;;;12.40;8.15;;;18.30;99.90;;;;;;10475849;28;20195;-76
2023/09/30 02:34:24;;;;;;;12.15;7.07;;;18.30;1.00;;;;;;10480416;28;20211;-77
2023/09/30 02:39:46;;;;;;;10.25;6.35;;;18.30;99.90;;;;;;10479502;28;20257;-77
2023/09/30 02:45:08;;;;;;;8.43;5.78;;;18.30;99.90;;;;;;10479836;28;20262;-76
2023/09/30 02:50:29;;;;;;;10.25;6.47;;;18.40;26.00;;;;;;10479130;28;20229;-76
2023/09/30 02:55:56;;;;;;;9.02;5.55;;;18.40;1.00;;;;;;10464798;28;20231;-77
2023/09/30 03:01:17;;;;;;;9.07;5.35;;;18.30;1.00;;;;;;10436817;28;20226;-76
2023/09/30 03:06:39;;;;;;;10.43;5.43;;;18.30;1.00;;;;;;10479316;28;20459;-76
2023/09/30 03:12:00;;;;;;;7.68;5.10;;;18.30;20.30;;;;;;10477639;28;20390;-77
2023/09/30 03:17:22;;;;;;;8.40;4.75;;;18.30;99.90;;;;;;10478665;28;20229;-76
2023/09/30 03:22:43;;;;;;;8.18;4.60;;;18.20;1.00;;;;;;10476844;28;20376;-77
2023/09/30 03:28:06;;;;;;;6.57;3.90;;;18.20;1.00;;;;;;10478263;28;20221;-77
2023/09/30 03:33:27;;;;;;;5.70;2.92;;;18.10;99.90;;;;;;10473219;28;20210;-77
2023/09/30 03:38:48;;;;;;;4.53;2.10;;;18.00;99.90;;;;;;10476833;28;20192;-77
2023/09/30 03:44:10;;;;;;;3.20;1.30;;;;;;;;;;10421684;28;20275;-77
2023/09/30 03:49:31;;;;;;;1.67;1.15;;;;;;;;;;10443576;28;20483;-77
2023/09/30 03:54:53;;;;;;;2.30;1.02;;;17.30;1.00;;;;;;10477634;28;20214;-77
2023/09/30 04:00:18;;;;;;;4.70;1.20;;;17.10;1.00;;;;;;10452386;28;20199;-76
2023/09/30 04:05:41;;;;;;;1.02;0.90;;;16.90;1.00;;;;;;10435257;28;20274;-76
2023/09/30 04:11:03;;;;;;;2.47;1.02;;;16.90;1.00;;;;;;10453039;28;20393;-77
2023/09/30 04:16:28;;;;;;;2.85;1.45;;;16.80;1.00;;;;;;10477041;28;20233;-76
2023/09/30 04:21:50;;;;;;;8.27;1.85;;;16.70;99.90;;;;;;10459610;28;20209;-77
2023/09/30 04:27:11;;;;;;;5.32;2.38;;;16.60;1.00;;;;;;10434659;28;20547;-76
2023/09/30 04:32:32;;;;;;;6.78;2.17;;;16.50;1.00;;;;;;10466927;28;20536;-77
2023/09/30 04:37:54;;;;;;;5.72;2.00;;;16.50;1.00;;;;;;10461812;28;20264;-77
2023/09/30 04:43:15;;;;;;;11.57;3.03;;;16.60;1.00;;;;;;10480152;28;20209;-76
2023/09/30 04:48:38;;;;;;;7.53;2.13;;;16.50;99.90;;;;;;10469723;28;20199;-76
2023/09/30 04:53:59;;;;;;;5.80;2.28;;;16.30;99.90;;;;;;10484205;28;20227;-76
2023/09/30 04:59:20;;;;;;;9.05;2.30;;;16.30;99.90;;;;;;10465218;28;20197;-78
2023/09/30 05:04:45;;;;;;;7.93;2.70;;;16.30;1.00;;;;;;10442885;28;20270;-76
2023/09/30 05:10:10;;;;;;;7.07;2.78;;;16.20;1.00;;;;;;10452170;28;20321;-76
2023/09/30 05:15:32;;;;;;;9.10;2.85;;;16.00;1.00;;;;;;10465686;28;20225;-75
2023/09/30 05:20:53;;;;;;;9.45;2.90;;;16.00;1.00;;;;;;10482731;28;20197;-75
2023/09/30 05:26:14;;;;;;;11.73;3.05;;;15.90;1.00;;;;;;10482519;28;20280;-75
2023/09/30 05:31:36;;;;;;;6.47;2.75;;;;;;;;;;10482141;28;20201;-75
2023/09/30 05:36:58;;;;;;;7.90;2.65;;;15.90;99.90;;;;;;10482572;28;20230;-75
2023/09/30 05:42:19;;;;;;;5.93;2.55;;;15.80;1.00;;;;;;10481591;28;20290;-76
2023/09/30 05:47:40;;;;;;;8.02;2.83;;;15.80;1.00;;;;;;10467434;28;20206;-76
2023/09/30 05:53:02;;;;;;;15.15;3.17;;;15.80;99.90;;;;;;10469438;28;20388;-75
2023/09/30 05:58:23;;;;;;;10.60;2.85;;;15.80;99.90;;;;;;10464186;28;20247;-76
2023/09/30 06:03:46;;;;;;;10.50;3.30;;;15.70;1.00;;;;;;10434471;28;20207;-76
2023/09/30 06:09:07;;;;;;;11.23;3.03;;;15.70;1.00;;;;;;10440406;28;20284;-75
2023/09/30 06:14:31;;;;;;;8.65;2.67;;;15.70;1.00;;;;;;10481264;28;20230;-76
2023/09/30 06:19:52;;;;;;;9.27;2.97;;;15.80;99.90;;;;;;10480066;28;20240;-75
2023/09/30 06:25:16;;;;;;;12.38;3.20;;;15.80;99.90;;;;;;10481059;28;20202;-75
2023/09/30 06:30:37;;;;;;;8.02;2.88;;;15.80;1.00;;;;;;10480194;28;20276;-76
2023/09/30 06:36:01;;;;;;;11.43;2.95;;;15.90;1.00;;;;;;10480593;28;20240;-75
2023/09/30 06:41:23;;;;;;;10.60;3.08;;;16.20;1.00;;;;;;10479628;28;20260;-76
2023/09/30 06:46:44;;;;;;;8.13;2.97;;;17.20;1.00;;;;;;10480046;28;20192;-77
2023/09/30 06:52:05;;;;;;;9.90;3.63;;;18.50;1.00;;;;;;10478812;28;20354;-75
2023/09/30 06:57:26;;;;;;;6.00;2.70;;;19.50;1.00;;;;;;10479542;28;20220;-76
2023/09/30 07:02:47;;;;;;;10.38;3.30;;;20.30;99.90;;;;;;10453510;28;20500;-75
2023/09/30 07:08:12;;;;;;;10.45;3.40;;;21.00;99.90;;;;;;10437336;28;20270;-76
2023/09/30 07:13:33;;;;;;;7.00;2.58;;;21.70;99.90;;;;;;10472779;28;20204;-76
2023/09/30 07:18:55;;;;;;;7.38;2.97;;;21.90;99.90;;;;;;10475928;28;20227;-76
2023/09/30 07:24:16;;;;;;;6.18;2.60;;;22.40;99.90;;;;;;10477051;28;20532;-76
2023/09/30 07:29:38;;;;;;;11.68;3.55;;;23.10;99.90;;;;;;10460922;28;20199;-77
2023/09/30 07:34:59;;;;;;;9.32;3.05;;;23.50;99.90;;;;;;10477319;28;20408;-77
2023/09/30 07:40:21;;;;;;;9.90;2.97;;;23.30;99.90;;;;;;10463331;28;20187;-77
2023/09/30 07:45:44;;;;;;;10.77;2.90;;;;;;;;;;10477022;28;20520;-76
2023/09/30 07:51:09;;;;;;;9.10;2.92;;;21.60;99.90;;;;;;10477808;28;20188;-75
2023/09/30 07:56:30;;;;;;;6.93;3.05;;;22.40;99.90;;;;;;10475769;28;20220;-77
2023/09/30 08:01:54;;;;;;;7.30;2.75;;;23.00;99.90;;;;;;10476214;28;20555;-77
2023/09/30 08:07:15;;;;;;;9.55;2.72;;;23.60;99.90;;;;;;10476461;28;20281;-76
2023/09/30 08:12:36;;;;;;;8.05;3.35;;;24.20;99.90;;;;;;10459549;28;20204;-77
2023/09/30 08:17:58;;;;;;;9.07;2.90;;;24.50;99.90;;;;;;10489590;28;20218;-77
2023/09/30 08:23:21;;;;;;;8.30;2.60;;;24.40;99.90;;;;;;10479119;28;20444;-76
2023/09/30 08:28:41;;;;;;;4.75;2.30;;;22.80;99.90;;;;;;10483408;28;20558;-75
2023/09/30 08:34:03;;;;;;;8.30;2.47;;;22.00;99.90;;;;;;10485305;28;20187;-76
2023/09/30 08:39:25;;;;;;;7.82;2.60;;;21.70;99.90;;;;;;10448205;28;20211;-78
2023/09/30 08:44:47;;;;;;;9.93;2.95;;;20.90;99.90;;;;;;10473806;28;20203;-76
2023/09/30 08:50:10;;;;;;;13.40;3.05;;;20.70;1.00;;;;;;10497355;28;20200;-75
2023/09/30 08:55:33;;;;;;;8.40;2.47;;;20.50;1.00;;;;;;10446553;28;20335;-76
2023/09/30 09:00:56;;;;;;;8.68;2.72;;;21.50;99.90;;;;;;10442320;28;20188;-74
2023/09/30 09:06:17;;;;;;;9.27;2.40;;;22.90;99.90;;;;;;10483227;28;20370;-75
2023/09/30 09:11:39;;;;;;;5.85;1.77;;;23.90;99.90;;;;;;10467732;28;20490;-75
2023/09/30 09:17:01;;;;;;;8.65;2.97;;;24.20;99.90;;;;;;10468020;28;20288;-75
2023/09/30 09:22:22;;;;;;;7.32;2.58;;;23.90;99.90;;;;;;10481107;28;20212;-74
2023/09/30 09:27:44;;;;;;;7.18;2.40;;;23.70;99.90;;;;;;10456489;28;20200;-75
2023/09/30 09:33:05;;;;;;;7.10;2.58;;;;;;;;;;10465699;28;20208;-75
2023/09/30 09:38:46;;;;;;;10.02;3.00;;;22.60;99.90;;;;;;10482987;28;20223;-75
2023/09/30 09:44:08;;;;;;;5.80;2.28;;;24.00;99.90;;;;;;10473185;28;20203;-75
2023/09/30 09:49:30;;;;;;;5.95;2.25;;;;;;;;;;10464258;28;20195;-75
2023/09/30 09:54:52;;;;;;;11.80;2.88;;;26.10;99.90;;;;;;10497720;28;20230;-75
2023/09/30 10:00:18;;;;;;;8.07;2.35;;;25.40;99.90;;;;;;10448764;28;20414;-77
2023/09/30 10:05:40;;;;;;;9.95;2.60;;;;;;;;;;10455473;28;20282;-77
2023/09/30 10:11:02;;;;;;;7.65;2.83;;;23.00;99.90;;;;;;10478675;28;20204;-77
2023/09/30 10:16:47;;;;;;;5.75;2.15;;;22.10;99.90;;;;;;10465822;28;20254;-77
2023/09/30 10:22:19;;;;;;;8.70;2.45;;;21.60;99.90;;;;;;10478883;28;20206;-77
2023/09/30 10:27:43;;;;;;;6.47;2.45;;;21.10;99.90;;;;;;10437757;28;20279;-77
2023/09/30 10:33:06;;;;;;;7.93;2.20;;;21.50;99.90;;;;;;10462589;28;20476;-77
2023/09/30 10:38:30;;;;;;;10.88;2.95;;;22.90;99.90;;;;;;10479638;28;20216;-77
2023/09/30 10:43:51;;;;;;;16.25;3.00;;;23.50;99.90;;;;;;10479311;28;20573;-77
2023/09/30 10:49:17;;;;;;;10.00;2.95;;;22.80;99.90;;;;;;10479989;28;20218;-76
2023/09/30 10:54:38;;;;;;;10.18;3.28;;;21.70;99.90;;;;;;10464683;28;20238;-76
2023/09/30 11:00:16;;;;;;;6.90;2.78;;;21.00;99.90;;;;;;10464462;28;20192;-77
2023/09/30 11:05:38;;;;;;;9.82;2.90;;;22.20;99.90;;;;;;10477897;28;20271;-77
2023/09/30 11:11:14;;;;;;;7.30;2.50;;;24.00;99.90;;;;;;10477754;28;20211;-77
2023/09/30 11:16:45;;;;;;;5.03;2.03;;;24.30;99.90;;;;;;10478757;28;20330;-77
2023/09/30 11:22:07;;;;;;;8.70;2.60;;;23.30;99.90;;;;;;10476948;28;20203;-77
2023/09/30 11:27:30;;;;;;;9.13;2.88;;;22.20;99.90;;;;;;10475947;28;20551;-77
2023/09/30 11:33:00;;;;;;;11.07;2.50;;;21.40;99.90;;;;;;10460787;28;20230;-76
2023/09/30 11:38:21;;;;;;;9.15;2.72;;;20.60;99.90;;;;;;10448860;28;20236;-77
2023/09/30 11:44:10;;;;;;;11.30;2.70;;;20.50;99.90;;;;;;10474659;28;20490;-77
2023/09/30 11:49:39;;;;;;;6.78;2.70;;;22.00;99.90;;;;;;10457656;28;20230;-77
2023/09/30 11:55:01;;;;;;;13.35;3.15;;;22.30;99.90;;;;;;10457922;28;20220;-77
2023/09/30 12:00:24;;;;;;;10.38;3.15;;;21.90;99.90;;;;;;10452702;28;20211;-76
2023/09/30 12:05:45;;;;;;;11.50;3.05;;;21.30;99.90;;;;;;10435992;28;20279;-77
2023/09/30 12:11:06;;;;;;;8.50;2.67;;;20.60;99.90;;;;;;10452652;28;20203;-77
2023/09/30 12:16:28;;;;;;;8.63;2.92;;;19.90;99.90;;;;;;10461893;28;20250;-77
2023/09/30 12:21:50;;;;;;;9.48;2.85;;;19.70;99.90;;;;;;10475763;28;20206;-76
2023/09/30 12:27:11;;;;;;;12.27;3.00;;;19.70;99.90;;;;;;10476846;28;20222;-77
2023/09/30 12:32:32;;;;;;;11.70;2.72;;;19.90;99.90;;;;;;10475858;28;20203;-76
2023/09/30 12:37:54;;;;;;;9.65;2.75;;;20.10;99.90;;;;;;10476568;28;20269;-77
2023/09/30 12:43:15;;;;;;;9.10;2.75;;;20.30;99.90;;;;;;10475824;28;20207;-77
2023/09/30 12:48:38;;;;;;;10.38;2.70;;;21.40;99.90;;;;;;10476536;28;20194;-77
2023/09/30 12:54:00;;;;;;;12.32;3.55;;;22.40;99.90;;;;;;10476413;28;20242;-77
2023/09/30 12:59:25;;;;;;;9.63;3.45;;;22.70;99.90;;;;;;10445418;28;20228;-77
2023/09/30 13:04:47;;;;;;;8.80;2.67;;;22.50;99.90;;;;;;10439779;28;20239;-76
2023/09/30 13:10:09;;;;;;;10.68;2.65;;;22.80;99.90;;;;;;10442527;28;20236;-77
2023/09/30 13:15:30;;;;;;;9.70;2.55;;;22.10;99.90;;;;;;10483397;28;20216;-77
2023/09/30 13:20:55;;;;;;;10.48;2.88;;;21.40;99.90;;;;;;10483335;28;20446;-76
2023/09/30 13:26:17;;;;;;;11.18;3.22;;;21.00;99.90;;;;;;10481243;28;20204;-76
2023/09/30 13:31:38;;;;;;;7.32;2.42;;;21.50;99.90;;;;;;10481850;28;20393;-77
2023/09/30 13:37:00;;;;;;;6.43;2.30;;;21.70;99.90;;;;;;10482692;28;20233;-77
2023/09/30 13:42:21;;;;;;;6.82;2.13;;;21.10;99.90;;;;;;10482041;28;20206;-77
2023/09/30 13:47:42;;;;;;;6.20;2.47;;;20.60;99.90;;;;;;10482746;28;20192;-76
2023/09/30 13:53:03;;;;;;;7.35;2.65;;;20.00;99.90;;;;;;10482173;28;20214;-76
2023/09/30 13:58:25;;;;;;;4.85;2.30;;;19.60;99.90;;;;;;10452904;28;20345;-76
2023/09/30 14:03:49;;;;;;;6.38;1.88;;;19.20;99.90;;;;;;10480949;28;20211;-76
2023/09/30 14:09:14;;;;;;;8.48;2.20;;;19.20;99.90;;;;;;10480319;28;20531;-76
2023/09/30 14:14:45;;;;;;;11.95;2.38;;;19.20;1.00;;;;;;10480222;28;20325;-76
2023/09/30 14:20:06;;;;;;;12.30;2.97;;;19.20;1.00;;;;;;10481031;28;20203;-75
2023/09/30 14:25:28;;;;;;;9.57;2.67;;;19.30;1.00;;;;;;10469075;28;20204;-77
2023/09/30 14:30:52;;;;;;;6.38;2.42;;;19.30;1.00;;;;;;10480982;28;20230;-76
2023/09/30 14:36:13;;;;;;;8.55;2.67;;;19.10;1.00;;;;;;10479473;28;20235;-76
2023/09/30 14:41:35;;;;;;;8.13;2.20;;;19.00;1.00;;;;;;10462606;28;20219;-76
2023/09/30 14:46:57;;;;;;;9.55;2.70;;;18.80;1.00;;;;;;10480039;28;20211;-77
2023/09/30 14:52:19;;;;;;;8.68;2.25;;;18.90;1.00;;;;;;10479251;28;20200;-76
2023/09/30 14:57:40;;;;;;;11.45;2.55;;;19.20;1.00;;;;;;10447845;28;20231;-77
2023/09/30 15:03:02;;;;;;;7.88;2.50;;;19.00;1.00;;;;;;10479314;28;20195;-76
2023/09/30 15:08:24;;;;;;;8.75;2.40;;;18.70;1.00;;;;;;10477857;28;20236;-76
2023/09/30 15:13:45;;;;;;;8.52;2.72;;;18.60;1.00;;;;;;10461778;28;20502;-76
2023/09/30 15:19:07;;;;;;;7.05;2.65;;;;;;;;;;10478679;28;20231;-77
2023/09/30 15:24:31;;;;;;;8.07;2.42;;;;;;;;;;10477549;28;20224;-75
2023/09/30 15:29:53;;;;;;;6.97;2.33;;;;;;;;;;10477657;28;20217;-76
2023/09/30 15:35:14;;;;;;;8.68;2.60;;;18.00;99.90;;;;;;10478148;28;20266;-76
2023/09/30 15:40:52;;;;;;;9.57;2.95;;;18.00;99.90;;;;;;10462149;28;20302;-77
2023/09/30 15:46:15;;;;;;;6.53;2.50;;;;;;;;;;10477858;28;20195;-76
2023/09/30 15:51:38;;;;;;;10.10;2.97;;;17.70;1.00;;;;;;10476681;28;20279;-76
2023/09/30 15:57:08;;;;;;;10.32;2.58;;;;;;;;;;10477377;28;20529;-77
2023/09/30 16:02:31;;;;;;;10.02;2.72;;;;;;;;;;10451291;28;20535;-75
2023/09/30 16:07:53;;;;;;;11.43;2.67;;;17.60;1.00;;;;;;10436250;28;20224;-76
2023/09/30 16:13:14;;;;;;;7.38;3.08;;;17.70;99.90;;;;;;10436130;28;20195;-76
2023/09/30 16:18:35;;;;;;;10.02;2.85;;;17.60;99.90;;;;;;10474802;28;20243;-76
2023/09/30 16:23:57;;;;;;;16.35;2.45;;;;;;;;;;10477140;28;20225;-77
2023/09/30 16:29:19;;;;;;;8.15;2.88;;;;;;;;;;10474915;28;20203;-76
2023/09/30 16:34:40;;;;;;;9.13;2.80;;;;;;;;;;10476319;28;20195;-77
2023/09/30 16:40:02;;;;;;;10.10;2.97;;;;;;;;;;10484134;28;20223;-76
2023/09/30 16:45:23;;;;;;;4.97;1.73;;;;;;;;;;10483394;28;20196;-75
2023/09/30 16:50:46;;;;;;;6.65;2.30;;;;;;;;;;10484969;28;20192;-74
2023/09/30 16:56:08;;;;;;;8.75;2.65;;;;;;;;;;10471365;28;20218;-75
2023/09/30 17:01:29;;;;;;;10.00;2.42;;;;;;;;;;10442922;28;20435;-75
2023/09/30 17:06:51;;;;;;;12.98;3.72;;;;;;;;;;10441588;28;20230;-75
2023/09/30 17:12:13;;;;;;;8.43;2.85;;;;;;;;;;10468108;28;20620;-76
2023/09/30 17:17:35;;;;;;;10.57;3.70;;;;;;;;;;10473572;28;20300;-76
2023/09/30 17:22:56;;;;;;;14.80;3.63;;;17.30;1.00;;;;;;10483424;28;20195;-76
2023/09/30 17:28:18;;;;;;;7.15;2.38;;;;;;;;;;10474185;28;20597;-76
2023/09/30 17:33:40;;;;;;;11.88;2.40;;;;;;;;;;10483303;28;20187;-77
2023/09/30 17:39:02;;;;;;;10.73;2.67;;;;;;;;;;10482829;28;20532;-77
2023/09/30 17:44:24;;;;;;;8.88;2.33;;;;;;;;;;10481756;28;20201;-76
2023/09/30 17:49:45;;;;;;;8.43;2.60;;;;;;;;;;10481974;28;20509;-76
2023/09/30 17:55:08;;;;;;;6.20;2.60;;;16.20;1.00;;;;;;10481637;28;20190;-76
2023/09/30 18:00:29;;;;;;;10.52;2.60;;;16.20;1.00;;;;;;10469909;28;20232;-76
2023/09/30 18:05:50;;;;;;;6.60;2.30;;;16.00;1.00;;;;;;10481821;28;20226;-76
2023/09/30 18:11:11;;;;;;;10.38;2.22;;;15.90;1.00;;;;;;10480422;28;20221;-76
2023/09/30 18:16:32;;;;;;;9.95;2.70;;;15.90;1.00;;;;;;10463994;28;20229;-76
2023/09/30 18:21:53;;;;;;;8.45;2.60;;;15.70;1.00;;;;;;10481255;28;20190;-76
2023/09/30 18:27:15;;;;;;;8.48;2.70;;;15.60;1.00;;;;;;10479062;28;20248;-76
2023/09/30 18:32:37;;;;;;;9.93;2.78;;;15.60;1.00;;;;;;10480511;28;20558;-76
2023/09/30 18:37:59;;;;;;;9.88;2.47;;;15.50;1.00;;;;;;10480336;28;20225;-76
2023/09/30 18:43:21;;;;;;;13.15;2.70;;;15.40;1.00;;;;;;10479465;28;20277;-76
2023/09/30 18:48:43;;;;;;;8.30;2.42;;;15.40;1.00;;;;;;10480280;28;20199;-76
2023/09/30 18:54:06;;;;;;;6.85;2.20;;;15.40;1.00;;;;;;10479789;28;20191;-76
2023/09/30 18:59:29;;;;;;;8.05;2.60;;;15.40;1.00;;;;;;10447109;28;20238;-77
2023/09/30 19:04:50;;;;;;;6.43;2.45;;;15.60;57.90;;;;;;10438394;28;20214;-76
2023/09/30 19:10:10;;;;;;;9.82;2.85;;;15.30;1.00;;;;;;10439298;28;20260;-76
2023/09/30 19:15:32;;;;;;;9.82;2.38;;;15.30;2.80;;;;;;10466989;28;20225;-77
2023/09/30 19:20:53;;;;;;;6.93;2.63;;;15.30;1.00;;;;;;10491021;28;20273;-75
2023/09/30 19:26:15;;;;;;;9.18;2.67;;;15.20;99.90;;;;;;10466413;28;20209;-74
2023/09/30 19:31:36;;;;;;;8.75;2.42;;;15.20;12.10;;;;;;10437508;28;20531;-76
2023/09/30 19:36:58;;;;;;;13.50;3.08;;;15.10;29.10;;;;;;10422108;28;20531;-76
2023/09/30 19:42:20;;;;;;;7.95;2.53;;;15.10;55.80;;;;;;10449597;28;20198;-76
2023/09/30 19:47:41;;;;;;;7.78;2.72;;;15.00;38.30;;;;;;10478104;28;20460;-75
2023/09/30 19:53:03;;;;;;;6.57;2.50;;;15.00;42.70;;;;;;10462872;28;20258;-75
2023/09/30 19:58:25;;;;;;;6.72;2.40;;;14.90;99.90;;;;;;10475772;28;20225;-76
2023/09/30 20:03:46;;;;;;;6.97;2.13;;;14.90;99.90;;;;;;10477945;28;20422;-76
2023/09/30 20:09:07;;;;;;;6.25;2.50;;;14.80;99.90;;;;;;10476127;28;20253;-75
2023/09/30 20:14:31;;;;;;;7.72;2.63;;;14.70;99.90;;;;;;10486885;28;20448;-76
2023/09/30 20:19:53;;;;;;;9.63;2.15;;;14.70;99.90;;;;;;10477769;28;20256;-75
2023/09/30 20:25:15;;;;;;;10.43;2.53;;;14.70;99.90;;;;;;10475946;28;20311;-76
2023/09/30 20:30:36;;;;;;;8.90;2.40;;;14.60;99.90;;;;;;10490339;28;20542;-75
2023/09/30 20:35:57;;;;;;;10.90;2.80;;;14.50;99.90;;;;;;10490925;28;20196;-75
2023/09/30 20:41:19;;;;;;;13.80;2.65;;;14.40;99.90;;;;;;10491004;28;20267;-74
2023/09/30 20:46:43;;;;;;;7.57;2.30;;;14.40;99.90;;;;;;10463160;28;20276;-76
2023/09/30 20:52:04;;;;;;;6.00;1.90;;;14.40;99.90;;;;;;10476289;28;20227;-74
2023/09/30 20:57:25;;;;;;;7.28;2.25;;;14.40;99.90;;;;;;10490692;28;20409;-75
2023/09/30 21:02:46;;;;;;;8.20;2.95;;;14.40;99.90;;;;;;10489754;28;20500;-75
2023/09/30 21:08:07;;;;;;;12.73;2.92;;;14.30;99.90;;;;;;10475143;28;20239;-74
2023/09/30 21:13:28;;;;;;;15.15;2.60;;;14.20;1.00;;;;;;10490424;28;20491;-74
2023/09/30 21:18:50;;;;;;;10.48;2.60;;;14.20;1.00;;;;;;10488511;28;20229;-74
2023/09/30 21:24:11;;;;;;;7.13;2.25;;;14.20;1.00;;;;;;10484737;28;20193;-74
2023/09/30 21:29:32;;;;;;;10.30;3.13;;;14.20;1.00;;;;;;10483491;28;20561;-74
2023/09/30 21:34:53;;;;;;;11.02;2.85;;;14.20;1.00;;;;;;10470627;28;20197;-74
2023/09/30 21:40:15;;;;;;;9.40;3.22;;;14.30;1.00;;;;;;10482833;28;20221;-74
2023/09/30 21:45:36;;;;;;;10.90;2.95;;;14.40;1.00;;;;;;10482060;28;20283;-74
2023/09/30 21:50:57;;;;;;;8.55;2.63;;;14.30;1.00;;;;;;10482396;28;20521;-74
2023/09/30 21:56:20;;;;;;;9.45;2.92;;;14.30;1.00;;;;;;10482374;28;20416;-74
2023/09/30 22:01:41;;;;;;;8.30;2.30;;;14.20;1.00;;;;;;10481146;28;20274;-74
2023/09/30 22:07:03;;;;;;;6.47;2.38;;;14.10;1.00;;;;;;10481385;28;20287;-74
2023/09/30 22:12:24;;;;;;;7.43;2.65;;;14.00;1.00;;;;;;10481851;28;20216;-74
2023/09/30 22:17:46;;;;;;;9.13;2.67;;;14.00;1.00;;;;;;10455462;28;20229;-74
2023/09/30 22:23:08;;;;;;;10.90;2.90;;;14.00;1.00;;;;;;10481269;28;20193;-74
2023/09/30 22:28:30;;;;;;;7.82;2.65;;;13.90;1.00;;;;;;10481134;28;20195;-74
2023/09/30 22:33:51;;;;;;;10.43;2.55;;;13.90;1.00;;;;;;10479534;28;20209;-74
2023/09/30 22:39:12;;;;;;;9.93;2.80;;;13.90;93.30;;;;;;10480624;28;20229;-74
2023/09/30 22:44:33;;;;;;;5.55;2.38;;;13.90;26.00;;;;;;10480535;28;20272;-75
2023/09/30 22:49:56;;;;;;;11.98;2.35;;;13.90;1.00;;;;;;10465283;28;20234;-74
2023/09/30 22:55:22;;;;;;;9.93;2.50;;;13.90;99.90;;;;;;10480034;28;20185;-74
2023/09/30 23:00:44;;;;;;;11.23;2.25;;;13.90;1.00;;;;;;10477741;28;20225;-75
2023/09/30 23:06:05;;;;;;;8.60;2.45;;;13.90;5.20;;;;;;10438136;28;20270;-74
2023/09/30 23:11:27;;;;;;;8.88;2.03;;;13.90;1.00;;;;;;10438179;28;20189;-74
2023/09/30 23:16:48;;;;;;;10.00;2.33;;;14.00;1.00;;;;;;10463916;28;20303;-74
2023/09/30 23:22:10;;;;;;;8.18;2.47;;;13.90;1.00;;;;;;10477798;28;20200;-74
2023/09/30 23:27:31;;;;;;;9.65;2.70;;;13.90;99.90;;;;;;10478819;28;20185;-74
2023/09/30 23:32:53;;;;;;;12.02;2.40;;;14.00;75.70;;;;;;10477838;28;20493;-74
2023/09/30 23:38:14;;;;;;;7.03;2.35;;;14.00;1.00;;;;;;10478421;28;20223;-74
2023/09/30 23:43:35;;;;;;;9.60;2.20;;;14.00;1.00;;;;;;10478336;28;20210;-75
2023/09/30 23:48:57;;;;;;;7.70;2.00;;;14.10;1.00;;;;;;10476852;28;20518;-74
2023/09/30 23:54:19;;;;;;;7.00;2.70;;;14.00;1.00;;;;;;10478059;28;20394;-74
2023/09/30 23:59:42;;;;;;;6.18;2.30;;;14.00;1.00;;;;;;10474058;28;20213;-74
